Time;durP1;ratioP1;P1;durP2;ratioP2;P2;SDS_P1;SDS_P2;PMS_P1;PMS_P2;Temp;Humidity;BMP_temperature;BMP_pressure;BME280_temperature;BME280_humidity;BME280_pressure;Samples;Min_cycle;Max_cycle;Signal;HPM_P1;HPM_P2
2022/05/13 00:00:53;;;;;;;1.85;1.25;;;11.10;92.50;;;;;;5086546;28;20077;-51
2022/05/13 00:03:19;;;;;;;3.07;1.77;;;11.10;92.70;;;;;;5082739;28;20040;-52
2022/05/13 00:05:44;;;;;;;11.53;2.07;;;11.10;92.60;;;;;;5069651;28;20036;-49
2022/05/13 00:08:10;;;;;;;3.75;1.30;;;11.10;92.80;;;;;;5084775;28;20274;-49
2022/05/13 00:10:35;;;;;;;4.10;2.50;;;11.20;92.90;;;;;;5083675;28;20119;-54
2022/05/13 00:13:02;;;;;;;8.13;1.70;;;11.20;92.80;;;;;;5070026;28;20106;-52
2022/05/13 00:15:29;;;;;;;3.28;1.50;;;11.20;92.80;;;;;;5076242;28;20051;-52
2022/05/13 00:17:55;;;;;;;6.35;1.50;;;11.20;92.80;;;;;;5072155;28;20041;-49
2022/05/13 00:20:21;;;;;;;5.03;1.50;;;11.20;92.80;;;;;;5070786;28;20105;-52
2022/05/13 00:22:48;;;;;;;;;;;11.20;92.60;;;;;;5074815;28;20039;-50
2022/05/13 00:25:21;;;;;;;5.10;1.45;;;11.20;92.80;;;;;;5081554;28;19965;-51
2022/05/13 00:27:47;;;;;;;4.28;1.65;;;11.20;92.70;;;;;;5081544;28;20044;-52
2022/05/13 00:30:14;;;;;;;3.90;1.38;;;11.20;92.50;;;;;;5076330;28;20552;-50
2022/05/13 00:32:40;;;;;;;6.82;1.50;;;11.20;92.50;;;;;;5079472;28;20051;-49
2022/05/13 00:35:07;;;;;;;2.80;1.20;;;11.10;92.50;;;;;;5079148;28;20394;-50
2022/05/13 00:37:33;;;;;;;3.38;1.23;;;11.10;92.50;;;;;;5076708;28;20323;-49
2022/05/13 00:39:59;;;;;;;3.35;1.13;;;11.10;92.50;;;;;;5076860;28;20047;-49
2022/05/13 00:42:25;;;;;;;3.35;1.13;;;11.00;92.50;;;;;;5075961;28;20040;-49
2022/05/13 00:44:51;;;;;;;3.22;1.55;;;11.00;92.60;;;;;;5075156;28;20510;-53
2022/05/13 00:47:18;;;;;;;3.90;1.17;;;11.00;92.70;;;;;;5077561;28;20033;-50
2022/05/13 00:49:43;;;;;;;5.25;1.65;;;11.00;92.70;;;;;;5075899;28;20044;-50
2022/05/13 00:52:10;;;;;;;3.43;1.67;;;11.00;92.70;;;;;;5085735;28;20036;-51
2022/05/13 00:54:38;;;;;;;4.93;2.28;;;11.00;92.80;;;;;;5078836;28;20044;-55
2022/05/13 00:57:04;;;;;;;5.60;1.35;;;11.00;92.70;;;;;;5075877;28;20072;-49
2022/05/13 00:59:32;;;;;;;;;;;10.90;92.90;;;;;;5077390;28;20070;-49
2022/05/13 01:01:58;;;;;;;3.22;1.33;;;10.90;93.30;;;;;;5079675;28;19920;-49
2022/05/13 01:04:25;;;;;;;3.47;1.20;;;10.90;93.10;;;;;;5079740;28;20035;-49
2022/05/13 01:06:54;;;;;;;8.85;2.58;;;10.90;93.40;;;;;;5074623;28;20097;-53
2022/05/13 01:09:21;;;;;;;7.68;1.50;;;10.90;93.40;;;;;;5072416;28;20405;-49
2022/05/13 01:11:52;;;;;;;5.72;1.33;;;10.90;93.50;;;;;;5079937;28;20393;-51
2022/05/13 01:14:24;;;;;;;3.40;1.55;;;10.90;93.40;;;;;;5081129;28;20492;-49
2022/05/13 01:19:34;;;;;;;4.20;1.35;;;10.90;93.50;;;;;;5075143;28;20048;-49
2022/05/13 01:22:14;;;;;;;2.87;0.97;;;10.90;93.60;;;;;;5075502;28;20485;-50
2022/05/13 01:24:41;;;;;;;4.53;1.52;;;10.90;93.70;;;;;;5074956;28;20545;-50
2022/05/13 01:27:07;;;;;;;3.33;1.30;;;10.90;93.50;;;;;;5090842;28;20515;-49
2022/05/13 01:29:32;;;;;;;2.15;1.25;;;10.90;93.60;;;;;;5081105;28;20036;-49
2022/05/13 01:31:58;;;;;;;4.33;1.57;;;10.90;93.70;;;;;;5075601;28;20086;-52
2022/05/13 01:34:23;;;;;;;5.13;1.43;;;10.80;93.80;;;;;;5079590;28;20553;-49
2022/05/13 01:36:49;;;;;;;5.20;1.83;;;10.90;93.70;;;;;;5077521;28;20166;-49
2022/05/13 01:39:14;;;;;;;5.97;1.33;;;10.90;93.70;;;;;;5072240;28;20037;-50
2022/05/13 01:41:40;;;;;;;6.27;1.50;;;10.90;94.00;;;;;;5072829;28;20516;-50
2022/05/13 01:44:06;;;;;;;10.37;1.70;;;10.80;94.10;;;;;;5076733;28;20032;-49
2022/05/13 01:46:32;;;;;;;3.22;1.10;;;10.90;94.10;;;;;;5072359;28;20369;-50
2022/05/13 01:48:57;;;;;;;3.20;1.20;;;10.90;94.20;;;;;;5090520;28;20032;-51
2022/05/13 01:51:23;;;;;;;3.75;1.10;;;10.90;94.40;;;;;;5078086;28;20094;-49
2022/05/13 01:53:49;;;;;;;3.15;1.30;;;10.90;94.40;;;;;;5076293;28;20081;-50
2022/05/13 01:56:15;;;;;;;4.78;1.48;;;10.90;94.50;;;;;;5091765;28;20040;-51
2022/05/13 01:58:41;;;;;;;4.03;1.40;;;10.90;94.60;;;;;;5077666;28;20037;-52
2022/05/13 02:01:08;;;;;;;4.50;1.50;;;10.90;94.60;;;;;;5074799;28;20044;-49
2022/05/13 02:03:46;;;;;;;4.15;1.10;;;10.90;94.70;;;;;;5092316;28;20365;-49
2022/05/13 02:06:13;;;;;;;3.42;1.40;;;10.90;94.70;;;;;;5085357;28;20051;-52
2022/05/13 02:08:39;;;;;;;7.03;1.80;;;10.90;94.70;;;;;;5083169;28;20525;-49
2022/05/13 02:11:05;;;;;;;2.53;1.42;;;10.90;94.80;;;;;;5073350;28;20284;-49
2022/05/13 02:13:31;;;;;;;3.65;1.33;;;10.90;94.80;;;;;;5080046;28;20040;-53
2022/05/13 02:15:57;;;;;;;4.13;1.20;;;10.90;95.10;;;;;;5071011;28;20032;-53
2022/05/13 02:18:23;;;;;;;8.98;1.85;;;10.80;95.10;;;;;;5071649;28;20494;-52
2022/05/13 02:20:49;;;;;;;9.93;2.03;;;10.80;95.10;;;;;;5071859;28;20040;-50
2022/05/13 02:23:17;;;;;;;8.30;2.45;;;10.90;95.20;;;;;;5075043;28;20036;-51
2022/05/13 02:25:43;;;;;;;2.65;1.10;;;10.80;95.10;;;;;;5075266;28;20038;-53
2022/05/13 02:28:09;;;;;;;7.18;1.42;;;10.80;95.30;;;;;;5074053;28;20029;-51
2022/05/13 02:30:34;;;;;;;5.00;1.40;;;10.80;95.30;;;;;;5073670;28;20040;-48
2022/05/13 02:33:00;;;;;;;2.03;1.00;;;10.80;95.30;;;;;;5075061;28;20063;-49
2022/05/13 02:35:27;;;;;;;4.80;1.27;;;10.80;95.40;;;;;;5056380;28;20397;-49
2022/05/13 02:37:53;;;;;;;6.15;1.50;;;10.70;95.60;;;;;;5069676;28;20056;-49
2022/05/13 02:40:20;;;;;;;5.03;1.13;;;10.70;95.70;;;;;;5073827;28;20044;-52
2022/05/13 02:42:45;;;;;;;;;;;10.70;95.80;;;;;;5072421;28;20054;-50
2022/05/13 02:45:11;;;;;;;6.00;1.67;;;10.70;96.10;;;;;;5084128;28;19984;-51
2022/05/13 02:47:38;;;;;;;5.28;1.80;;;10.60;95.90;;;;;;5074675;28;20036;-50
2022/05/13 02:50:18;;;;;;;3.58;1.48;;;10.60;96.00;;;;;;5074760;28;20028;-51
2022/05/13 02:52:44;;;;;;;5.30;1.55;;;10.60;96.20;;;;;;5056063;28;20043;-49
2022/05/13 02:55:10;;;;;;;7.35;1.30;;;10.50;96.20;;;;;;5066709;28;20045;-53
2022/05/13 02:57:36;;;;;;;5.43;1.40;;;10.50;96.30;;;;;;5071783;28;20044;-49
2022/05/13 03:00:04;;;;;;;6.32;1.23;;;10.50;96.60;;;;;;5073796;28;20050;-49
2022/05/13 03:02:30;;;;;;;5.97;1.38;;;10.50;96.60;;;;;;5071744;28;20045;-50
2022/05/13 03:04:55;;;;;;;6.03;1.07;;;10.50;96.60;;;;;;5070365;28;20036;-49
2022/05/13 03:07:21;;;;;;;7.17;1.63;;;10.50;97.00;;;;;;5074846;28;20068;-50
2022/05/13 03:09:46;;;;;;;10.73;2.63;;;10.40;97.00;;;;;;5069632;28;20028;-51
2022/05/13 03:12:12;;;;;;;4.87;1.43;;;10.40;97.20;;;;;;5074686;28;20592;-52
2022/05/13 03:14:38;;;;;;;4.93;1.40;;;10.40;97.30;;;;;;5073559;28;20493;-49
2022/05/13 03:17:05;;;;;;;7.80;1.90;;;10.40;97.40;;;;;;5070275;28;20310;-49
2022/05/13 03:19:31;;;;;;;5.93;1.90;;;10.40;97.40;;;;;;5069915;28;20032;-49
2022/05/13 03:21:56;;;;;;;9.82;1.77;;;10.30;97.50;;;;;;5070173;28;20037;-49
2022/05/13 03:24:22;;;;;;;9.13;2.30;;;10.40;97.80;;;;;;5070999;28;20039;-49
2022/05/13 03:26:48;;;;;;;4.57;1.65;;;10.30;98.00;;;;;;5081847;28;20114;-49
2022/05/13 03:29:14;;;;;;;4.63;1.33;;;10.30;98.10;;;;;;5078381;28;20454;-50
2022/05/13 03:31:39;;;;;;;8.83;2.30;;;10.30;98.30;;;;;;5071349;28;20046;-49
2022/05/13 03:34:05;;;;;;;8.67;2.10;;;10.30;98.70;;;;;;5070104;28;20485;-48
2022/05/13 03:36:31;;;;;;;5.88;1.58;;;10.30;98.80;;;;;;5073232;28;20076;-49
2022/05/13 03:38:57;;;;;;;9.50;2.28;;;10.30;99.00;;;;;;5072978;28;20035;-53
2022/05/13 03:41:22;;;;;;;10.75;2.72;;;10.40;99.10;;;;;;5070073;28;20051;-50
2022/05/13 03:43:48;;;;;;;9.65;2.00;;;10.40;99.40;;;;;;5085249;28;20040;-49
2022/05/13 03:46:13;;;;;;;8.27;2.17;;;10.40;99.60;;;;;;5084651;28;20051;-52
2022/05/13 03:48:39;;;;;;;7.10;1.63;;;10.40;99.90;;;;;;5070866;28;20116;-50
2022/05/13 03:51:04;;;;;;;4.13;1.60;;;10.40;99.90;;;;;;5086647;28;20089;-49
2022/05/13 03:53:30;;;;;;;6.63;1.80;;;10.50;99.90;;;;;;5082203;28;20044;-49
2022/05/13 03:55:56;;;;;;;5.57;1.53;;;10.50;99.90;;;;;;5070019;28;20048;-48
2022/05/13 03:58:21;;;;;;;6.53;1.43;;;10.50;99.90;;;;;;5085622;28;20051;-50
2022/05/13 04:00:47;;;;;;;8.93;2.43;;;10.50;99.90;;;;;;5079436;28;20314;-49
2022/05/13 04:03:13;;;;;;;9.30;3.60;;;10.50;99.90;;;;;;5071133;28;20039;-51
2022/05/13 04:11:08;;;;;;;8.40;1.90;;;10.60;99.90;;;;;;5077442;28;20043;-49
2022/05/13 04:16:18;;;;;;;8.57;1.73;;;10.70;99.90;;;;;;5081295;28;20053;-49
2022/05/13 04:18:46;;;;;;;10.63;3.00;;;10.70;99.90;;;;;;5070657;28;20044;-49
2022/05/13 04:21:21;;;;;;;13.15;2.55;;;10.80;99.90;;;;;;5071601;28;20093;-49
2022/05/13 04:23:49;;;;;;;9.65;2.03;;;10.80;99.90;;;;;;5080605;28;20035;-52
2022/05/13 04:26:15;;;;;;;11.40;2.83;;;10.80;99.90;;;;;;5069670;28;20096;-53
2022/05/13 04:28:42;;;;;;;10.70;2.80;;;10.90;99.90;;;;;;5072693;28;20525;-53
2022/05/13 04:31:09;;;;;;;10.40;2.33;;;10.90;99.90;;;;;;5069449;28;20115;-49
2022/05/13 04:33:35;;;;;;;;;;;11.00;99.90;;;;;;5080694;28;20089;-50
2022/05/13 04:36:01;;;;;;;16.08;3.88;;;11.00;99.90;;;;;;5069832;28;19922;-49
2022/05/13 04:38:26;;;;;;;14.43;4.07;;;11.10;99.90;;;;;;5074048;28;20118;-49
2022/05/13 04:40:52;;;;;;;10.37;2.77;;;11.10;99.90;;;;;;5069051;28;20075;-51
2022/05/13 04:43:17;;;;;;;9.53;2.20;;;11.10;99.90;;;;;;5077678;28;20036;-52
2022/05/13 04:45:43;;;;;;;18.10;4.23;;;11.20;99.90;;;;;;5071669;28;20039;-49
2022/05/13 04:48:21;;;;;;;11.00;2.88;;;11.20;99.90;;;;;;5077595;28;20063;-49
2022/05/13 04:50:58;;;;;;;7.60;2.42;;;11.20;99.90;;;;;;5070588;28;20076;-49
2022/05/13 04:53:29;;;;;;;13.90;3.63;;;11.30;99.90;;;;;;5077731;28;20044;-52
2022/05/13 04:55:57;;;;;;;13.20;3.72;;;11.30;99.90;;;;;;5072728;28;20036;-52
2022/05/13 04:58:23;;;;;;;14.65;3.50;;;11.30;99.90;;;;;;5070667;28;20040;-52
2022/05/13 05:00:50;;;;;;;11.15;3.75;;;11.30;99.90;;;;;;5073162;28;20033;-49
2022/05/13 05:03:17;;;;;;;17.20;3.42;;;11.30;99.90;;;;;;5073093;28;20032;-52
2022/05/13 05:05:43;;;;;;;19.63;4.47;;;11.40;99.90;;;;;;5068529;28;20028;-53
2022/05/13 05:08:13;;;;;;;9.68;2.90;;;11.40;99.90;;;;;;5069011;28;20047;-49
2022/05/13 05:10:40;;;;;;;10.63;3.92;;;11.40;99.90;;;;;;5070004;28;20037;-52
2022/05/13 05:13:07;;;;;;;14.48;4.32;;;11.40;99.90;;;;;;5071659;28;20043;-50
2022/05/13 05:15:34;;;;;;;11.10;3.53;;;11.40;99.90;;;;;;5076027;28;20041;-49
2022/05/13 05:18:00;;;;;;;10.90;4.38;;;11.50;99.90;;;;;;5075659;28;20055;-49
2022/05/13 05:20:26;;;;;;;14.57;5.30;;;11.50;99.90;;;;;;5072520;28;20036;-52
2022/05/13 05:22:52;;;;;;;14.55;3.45;;;11.60;99.90;;;;;;5072723;28;20060;-52
2022/05/13 05:25:20;;;;;;;12.93;4.57;;;11.60;99.90;;;;;;5084116;28;20129;-50
2022/05/13 05:27:46;;;;;;;21.05;3.58;;;11.60;99.90;;;;;;5075812;28;20059;-49
2022/05/13 05:30:13;;;;;;;12.65;3.28;;;11.70;99.90;;;;;;5072151;28;20494;-49
2022/05/13 05:32:39;;;;;;;9.38;3.85;;;11.70;99.90;;;;;;5071469;28;20058;-53
2022/05/13 05:35:08;;;;;;;18.02;4.10;;;11.70;99.90;;;;;;5075865;28;20036;-52
2022/05/13 05:37:33;;;;;;;8.75;4.00;;;11.80;99.90;;;;;;5072386;28;20049;-50
2022/05/13 05:39:59;;;;;;;12.00;4.00;;;11.80;99.90;;;;;;5071794;28;20495;-50
2022/05/13 05:42:25;;;;;;;10.23;4.03;;;11.80;99.90;;;;;;5080442;28;20036;-51
2022/05/13 05:44:51;;;;;;;17.42;5.82;;;11.90;99.90;;;;;;5073776;28;20194;-49
2022/05/13 05:47:21;;;;;;;14.27;4.38;;;11.90;99.90;;;;;;5091481;28;20040;-50
2022/05/13 05:49:47;;;;;;;12.55;3.92;;;12.00;99.90;;;;;;5080312;28;20082;-49
2022/05/13 05:52:12;;;;;;;12.70;3.88;;;12.10;99.90;;;;;;5073243;28;20036;-49
2022/05/13 05:57:22;;;;;;;18.55;4.57;;;12.20;99.90;;;;;;5075436;28;20048;-49
2022/05/13 05:59:48;;;;;;;17.57;4.43;;;12.30;99.90;;;;;;5072415;28;20048;-52
2022/05/13 06:02:15;;;;;;;13.48;4.80;;;12.30;99.90;;;;;;5087076;28;20054;-51
2022/05/13 06:04:40;;;;;;;;;;;12.40;99.90;;;;;;5092234;28;20493;-51
2022/05/13 06:07:15;;;;;;;12.27;3.40;;;12.40;99.90;;;;;;5078073;28;19946;-52
2022/05/13 06:09:43;;;;;;;15.85;4.38;;;12.50;99.90;;;;;;5079792;28;20040;-49
2022/05/13 06:12:12;;;;;;;20.02;4.05;;;12.60;99.90;;;;;;5092345;28;20482;-52
2022/05/13 06:14:39;;;;;;;7.53;3.58;;;12.70;99.90;;;;;;5077385;28;20072;-52
2022/05/13 06:17:05;;;;;;;15.10;2.75;;;12.70;99.90;;;;;;5074902;28;20040;-55
2022/05/13 06:19:31;;;;;;;;;;;12.80;99.90;;;;;;5075422;28;20040;-50
2022/05/13 06:21:56;;;;;;;17.23;4.80;;;12.80;99.90;;;;;;5070625;28;19966;-50
2022/05/13 06:24:22;;;;;;;12.27;3.13;;;12.90;99.90;;;;;;5069796;28;20123;-49
2022/05/13 06:26:49;;;;;;;9.57;3.05;;;13.00;99.90;;;;;;5070201;28;20032;-49
2022/05/13 06:29:17;;;;;;;14.35;2.80;;;13.20;99.90;;;;;;5074646;28;20283;-49
2022/05/13 06:31:43;;;;;;;17.35;2.03;;;13.40;99.90;;;;;;5081742;28;20051;-55
2022/05/13 06:34:10;;;;;;;18.77;3.13;;;13.50;99.90;;;;;;5074985;28;20044;-49
2022/05/13 06:36:36;;;;;;;13.57;2.33;;;13.60;99.90;;;;;;5070527;28;20445;-52
2022/05/13 06:39:02;;;;;;;14.40;3.88;;;13.70;99.90;;;;;;5071601;28;20043;-51
2022/05/13 06:41:28;;;;;;;;;;;13.80;99.90;;;;;;5071607;28;20047;-52
2022/05/13 06:43:53;;;;;;;9.43;2.65;;;13.80;99.90;;;;;;5075120;28;19917;-49
2022/05/13 06:46:20;;;;;;;10.32;3.20;;;13.90;99.90;;;;;;5070289;28;20108;-51
2022/05/13 06:48:46;;;;;;;12.18;2.13;;;14.00;99.90;;;;;;5069993;28;20040;-50
2022/05/13 06:51:12;;;;;;;;;;;14.10;99.90;;;;;;5074988;28;20040;-50
2022/05/13 06:53:37;;;;;;;11.32;2.83;;;14.20;99.90;;;;;;5075113;28;19923;-52
2022/05/13 06:56:03;;;;;;;10.27;2.67;;;14.20;99.90;;;;;;5090682;28;20519;-50
2022/05/13 06:58:29;;;;;;;16.10;2.97;;;14.30;99.90;;;;;;5086457;28;20328;-50
2022/05/13 07:00:54;;;;;;;9.77;2.35;;;14.20;99.50;;;;;;5070884;28;20123;-50
2022/05/13 07:03:20;;;;;;;11.98;2.20;;;14.20;99.50;;;;;;5072490;28;20028;-50
2022/05/13 07:05:46;;;;;;;7.47;2.05;;;14.20;99.30;;;;;;5090083;28;20081;-51
2022/05/13 07:08:12;;;;;;;7.88;2.60;;;14.20;99.30;;;;;;5078237;28;20035;-49
2022/05/13 07:10:39;;;;;;;7.13;2.53;;;14.10;99.20;;;;;;5072549;28;20409;-51
2022/05/13 07:13:06;;;;;;;8.77;2.20;;;14.10;99.00;;;;;;5080487;28;20044;-49
2022/05/13 07:15:33;;;;;;;7.03;2.95;;;14.00;99.00;;;;;;5071118;28;20413;-55
2022/05/13 07:17:58;;;;;;;11.25;2.85;;;14.00;99.00;;;;;;5081560;28;20417;-51
2022/05/13 07:20:26;;;;;;;17.80;2.83;;;13.80;99.10;;;;;;5075864;28;20070;-53
2022/05/13 07:22:52;;;;;;;10.57;3.08;;;13.80;99.60;;;;;;5070294;28;20052;-53
2022/05/13 07:25:18;;;;;;;11.25;2.92;;;13.60;99.90;;;;;;5067407;28;20055;-53
2022/05/13 07:27:44;;;;;;;8.68;2.67;;;13.50;99.90;;;;;;5073285;28;20036;-53
2022/05/13 07:30:10;;;;;;;13.40;3.67;;;13.50;99.90;;;;;;5070746;28;20192;-49
2022/05/13 07:32:36;;;;;;;;;;;13.50;99.90;;;;;;5072440;28;20382;-49
2022/05/13 07:35:02;;;;;;;13.93;3.15;;;13.40;99.90;;;;;;5068972;28;19942;-49
2022/05/13 07:37:28;;;;;;;8.55;3.33;;;13.40;99.90;;;;;;5073947;28;20466;-51
2022/05/13 07:42:38;;;;;;;6.70;2.50;;;13.50;99.90;;;;;;5060213;28;20441;-51
2022/05/13 07:45:04;;;;;;;11.43;3.23;;;13.50;99.90;;;;;;5055743;28;20041;-50
2022/05/13 07:47:30;;;;;;;5.43;2.20;;;13.70;99.90;;;;;;5055455;28;20045;-49
2022/05/13 07:49:56;;;;;;;9.52;2.45;;;13.80;99.90;;;;;;5056097;28;20031;-49
2022/05/13 07:52:24;;;;;;;8.02;2.13;;;13.80;99.90;;;;;;5058698;28;20053;-52
2022/05/13 07:54:49;;;;;;;11.23;3.00;;;14.00;99.90;;;;;;5053555;28;20052;-49
2022/05/13 07:57:15;;;;;;;13.40;2.42;;;14.20;99.90;;;;;;5054091;28;20036;-52
2022/05/13 08:02:25;;;;;;;12.30;2.90;;;14.80;99.90;;;;;;5052725;28;20036;-53
2022/05/13 08:04:51;;;;;;;6.60;2.53;;;15.10;99.90;;;;;;5060653;28;20506;-49
2022/05/13 08:07:17;;;;;;;7.57;2.55;;;15.30;99.90;;;;;;5057117;28;20029;-52
2022/05/13 08:09:43;;;;;;;11.38;2.95;;;15.50;99.90;;;;;;5049289;28;20051;-49
2022/05/13 08:12:09;;;;;;;10.50;3.45;;;15.60;99.90;;;;;;5058045;28;20041;-50
2022/05/13 08:14:34;;;;;;;6.97;2.05;;;15.60;99.90;;;;;;5052764;28;20047;-56
2022/05/13 08:17:00;;;;;;;8.13;2.00;;;15.60;99.80;;;;;;5050603;28;20041;-51
2022/05/13 08:19:25;;;;;;;6.05;0.90;;;15.60;99.50;;;;;;5059668;28;20028;-52
2022/05/13 08:21:51;;;;;;;7.78;1.73;;;15.70;98.40;;;;;;5054949;28;20041;-52
2022/05/13 08:24:16;;;;;;;8.77;1.15;;;15.70;97.70;;;;;;5052417;28;20659;-50
2022/05/13 08:26:43;;;;;;;6.57;0.98;;;15.70;97.40;;;;;;5049484;28;20114;-51
2022/05/13 08:29:08;;;;;;;;;;;15.70;97.10;;;;;;5052289;28;20060;-50
2022/05/13 08:31:33;;;;;;;7.15;0.70;;;15.60;96.50;;;;;;5048913;28;19963;-51
2022/05/13 08:33:59;;;;;;;5.90;0.50;;;15.60;96.80;;;;;;5055984;28;20037;-49
2022/05/13 08:36:25;;;;;;;3.63;0.80;;;15.60;96.00;;;;;;5048138;28;20048;-51
2022/05/13 08:38:50;;;;;;;7.55;0.63;;;15.50;96.00;;;;;;5053884;28;20466;-54
2022/05/13 08:41:28;;;;;;;7.47;0.82;;;15.50;96.10;;;;;;5047791;28;20155;-52
2022/05/13 08:43:57;;;;;;;4.00;0.98;;;15.40;95.60;;;;;;5060428;28;20407;-49
2022/05/13 08:46:42;;;;;;;2.88;0.60;;;15.40;95.90;;;;;;5056074;28;20045;-49
2022/05/13 08:49:44;;;;;;;3.80;0.60;;;15.50;96.10;;;;;;5060788;28;20504;-49
2022/05/13 08:55:15;;;;;;;1.98;0.50;;;15.50;95.70;;;;;;5058667;28;20048;-53
2022/05/13 08:57:44;;;;;;;7.68;0.80;;;15.50;95.70;;;;;;5059641;28;20041;-55
2022/05/13 09:00:16;;;;;;;5.07;0.70;;;15.50;95.70;;;;;;5059730;28;20094;-50
2022/05/13 09:02:55;;;;;;;4.72;0.80;;;15.60;95.70;;;;;;5052540;28;20112;-50
2022/05/13 09:05:31;;;;;;;7.35;1.17;;;15.60;95.10;;;;;;5058175;28;20033;-49
2022/05/13 09:07:57;;;;;;;3.72;0.70;;;15.60;95.00;;;;;;5050308;28;20086;-50
2022/05/13 09:10:25;;;;;;;7.68;1.40;;;15.50;95.00;;;;;;5062853;28;20041;-49
2022/05/13 09:13:00;;;;;;;3.38;1.00;;;15.60;95.70;;;;;;5054982;28;20033;-50
2022/05/13 09:15:45;;;;;;;2.78;0.63;;;15.90;95.20;;;;;;5052643;28;20037;-52
2022/05/13 09:18:32;;;;;;;2.17;0.50;;;16.00;94.60;;;;;;5054994;28;20045;-51
2022/05/13 09:21:02;;;;;;;6.28;1.27;;;16.10;94.20;;;;;;5065563;28;20474;-51
2022/05/13 09:23:28;;;;;;;1.85;0.47;;;16.00;93.70;;;;;;5063317;28;20633;-49
2022/05/13 09:26:15;;;;;;;3.42;0.73;;;16.00;93.80;;;;;;5057783;28;20029;-48
2022/05/13 09:28:59;;;;;;;6.57;0.60;;;15.90;94.10;;;;;;5049930;28;20701;-50
2022/05/13 09:31:28;;;;;;;8.18;0.60;;;16.00;93.20;;;;;;5060718;28;20048;-51
2022/05/13 09:33:54;;;;;;;7.00;0.43;;;16.00;93.10;;;;;;5062078;28;20044;-53
2022/05/13 09:36:22;;;;;;;6.32;0.77;;;16.10;93.10;;;;;;5050080;28;20060;-49
2022/05/13 09:38:51;;;;;;;6.40;0.50;;;16.10;93.10;;;;;;5058238;28;20044;-49
2022/05/13 09:41:29;;;;;;;2.78;0.40;;;16.30;93.70;;;;;;5063567;28;20502;-54
2022/05/13 09:44:03;;;;;;;5.00;0.40;;;16.50;93.00;;;;;;5058970;28;20040;-49
2022/05/13 09:46:36;;;;;;;2.03;0.40;;;16.70;92.60;;;;;;5053369;28;20037;-55
2022/05/13 09:49:24;;;;;;;5.32;1.05;;;16.80;92.50;;;;;;5064230;28;20474;-49
2022/05/13 09:51:55;;;;;;;6.53;0.63;;;17.10;92.10;;;;;;5053885;28;20049;-49
2022/05/13 09:54:28;;;;;;;2.97;0.47;;;17.30;91.70;;;;;;5058509;28;20053;-52
2022/05/13 09:57:06;;;;;;;6.07;0.40;;;17.30;90.80;;;;;;5058465;28;20119;-49
2022/05/13 09:59:45;;;;;;;4.07;0.50;;;17.20;91.10;;;;;;5059870;28;20429;-52
2022/05/13 10:02:29;;;;;;;6.35;0.40;;;17.00;91.00;;;;;;5059644;28;20041;-55
2022/05/13 10:05:11;;;;;;;5.63;0.85;;;16.90;90.60;;;;;;5059588;28;20143;-52
2022/05/13 10:07:53;;;;;;;3.50;0.45;;;16.70;90.80;;;;;;5056061;28;20035;-52
2022/05/13 10:16:23;;;;;;;10.38;1.40;;;16.60;91.00;;;;;;5058271;28;20036;-52
2022/05/13 10:18:57;;;;;;;6.90;0.70;;;16.70;91.00;;;;;;5052915;28;20303;-52
2022/05/13 10:21:33;;;;;;;4.93;0.98;;;16.90;91.80;;;;;;5056635;28;20040;-50
2022/05/13 10:24:08;;;;;;;5.05;0.70;;;17.10;91.70;;;;;;5061490;28;20040;-49
2022/05/13 10:26:41;;;;;;;6.10;0.65;;;17.40;91.40;;;;;;5063405;28;20100;-53
2022/05/13 10:29:24;;;;;;;3.28;0.68;;;17.50;90.80;;;;;;5067942;28;20068;-50
2022/05/13 10:31:51;;;;;;;10.00;1.00;;;17.50;90.30;;;;;;5055663;28;20040;-54
2022/05/13 10:34:25;;;;;;;4.15;0.70;;;17.60;91.10;;;;;;5058207;28;20041;-52
2022/05/13 10:36:57;;;;;;;4.82;0.90;;;17.70;90.70;;;;;;5053090;28;20041;-57
2022/05/13 10:39:46;;;;;;;8.25;1.23;;;17.80;90.30;;;;;;5056500;28;20052;-50
2022/05/13 10:42:35;;;;;;;5.40;0.65;;;17.70;89.90;;;;;;5060040;28;20118;-50
2022/05/13 10:45:14;;;;;;;1.95;0.60;;;17.60;90.10;;;;;;5063524;28;20029;-53
2022/05/13 10:47:49;;;;;;;9.00;1.33;;;17.80;90.60;;;;;;5060056;28;20032;-49
2022/05/13 10:50:33;;;;;;;4.13;1.05;;;17.90;89.80;;;;;;5056019;28;20032;-52
2022/05/13 10:53:17;;;;;;;6.60;1.10;;;18.00;87.20;;;;;;5085212;28;20040;-52
2022/05/13 10:56:02;;;;;;;4.68;1.35;;;17.80;84.80;;;;;;5054146;28;20037;-54
2022/05/13 10:59:08;;;;;;;6.20;1.40;;;17.70;85.90;;;;;;5059106;28;20482;-51
2022/05/13 11:02:02;;;;;;;5.57;1.10;;;17.60;88.30;;;;;;5010977;28;20467;-50
2022/05/13 11:04:37;;;;;;;6.45;0.80;;;17.60;87.00;;;;;;5058704;28;20067;-49
2022/05/13 11:07:21;;;;;;;7.07;1.02;;;17.50;87.30;;;;;;5088477;28;20060;-50
2022/05/13 11:10:08;;;;;;;6.20;0.70;;;17.50;86.80;;;;;;5057346;28;20067;-50
2022/05/13 11:12:47;;;;;;;8.52;1.23;;;17.50;87.30;;;;;;5056732;28;20132;-51
2022/05/13 11:15:22;;;;;;;5.32;0.73;;;17.50;88.30;;;;;;5055858;28;20047;-52
2022/05/13 11:17:59;;;;;;;7.53;1.08;;;17.60;86.10;;;;;;5059380;28;20036;-51
2022/05/13 11:20:53;;;;;;;9.77;1.30;;;17.70;87.50;;;;;;5062920;28;20035;-53
2022/05/13 11:23:33;;;;;;;6.15;1.75;;;17.80;86.90;;;;;;5055396;28;20048;-54
2022/05/13 11:26:17;;;;;;;5.53;1.30;;;17.70;85.40;;;;;;5055245;28;20084;-50
2022/05/13 11:29:01;;;;;;;8.48;1.02;;;17.70;86.20;;;;;;5052470;28;20036;-50
2022/05/13 11:31:40;;;;;;;13.25;1.75;;;17.60;86.80;;;;;;5053454;28;20120;-52
2022/05/13 11:34:37;;;;;;;3.05;0.95;;;17.60;87.10;;;;;;5052638;28;20114;-52
2022/05/13 11:37:05;;;;;;;3.72;1.35;;;17.60;87.60;;;;;;5056655;28;20045;-49
2022/05/13 11:39:54;;;;;;;4.50;0.75;;;17.70;87.50;;;;;;5061619;28;20041;-49
2022/05/13 11:42:30;;;;;;;4.82;1.17;;;17.90;85.70;;;;;;5055627;28;20033;-52
2022/05/13 11:45:11;;;;;;;;;;;18.00;84.60;;;;;;5056317;28;20516;-53
2022/05/13 11:47:58;;;;;;;4.18;0.93;;;17.90;83.20;;;;;;5057591;28;20275;-50
2022/05/13 11:50:25;;;;;;;3.50;1.17;;;17.90;85.70;;;;;;5054528;28;20037;-49
2022/05/13 11:52:53;;;;;;;4.28;0.57;;;17.90;85.10;;;;;;5055074;28;20051;-49
2022/05/13 11:55:42;;;;;;;6.30;0.77;;;17.90;84.70;;;;;;5054851;28;20047;-49
2022/05/13 11:58:09;;;;;;;4.00;0.75;;;17.70;84.50;;;;;;5062231;28;20456;-49
2022/05/13 12:00:37;;;;;;;4.82;0.77;;;17.70;84.50;;;;;;5051904;28;20061;-53
2022/05/13 12:03:09;;;;;;;2.78;0.70;;;17.60;85.50;;;;;;5060754;28;20076;-50
2022/05/13 12:05:52;;;;;;;4.45;1.10;;;17.50;86.30;;;;;;5054796;28;20036;-52
2022/05/13 12:08:40;;;;;;;4.68;0.60;;;17.40;86.10;;;;;;5053571;28;20037;-49
2022/05/13 12:11:22;;;;;;;;;;;17.30;85.50;;;;;;5049224;28;20513;-50
2022/05/13 12:14:18;;;;;;;4.22;1.02;;;17.20;85.30;;;;;;5050122;28;19924;-54
2022/05/13 12:17:09;;;;;;;8.18;0.82;;;17.20;86.30;;;;;;5055260;28;20401;-50
2022/05/13 12:20:13;;;;;;;6.63;0.90;;;17.30;87.50;;;;;;5053855;28;20497;-50
2022/05/13 12:22:59;;;;;;;7.88;1.40;;;17.50;87.70;;;;;;4988939;28;20046;-52
2022/05/13 12:25:37;;;;;;;4.05;0.80;;;17.60;86.70;;;;;;5052914;28;20445;-50
2022/05/13 12:28:10;;;;;;;6.10;1.08;;;17.60;85.90;;;;;;5058634;28;20033;-50
2022/05/13 12:30:39;;;;;;;7.80;1.05;;;17.50;85.60;;;;;;5053298;28;20037;-49
2022/05/13 12:33:20;;;;;;;6.78;0.82;;;17.60;85.70;;;;;;5061824;28;20506;-49
2022/05/13 12:39:04;;;;;;;3.78;0.73;;;17.90;84.50;;;;;;5051022;28;20049;-52
2022/05/13 12:41:42;;;;;;;5.85;1.00;;;18.00;84.90;;;;;;5055065;28;20073;-52
2022/05/13 12:44:30;;;;;;;4.65;1.40;;;18.00;84.30;;;;;;5048519;28;20041;-49
2022/05/13 12:47:14;;;;;;;10.00;0.77;;;18.00;83.60;;;;;;5058751;28;20114;-52
2022/05/13 12:49:49;;;;;;;6.50;1.20;;;17.90;82.50;;;;;;5042947;28;20403;-51
2022/05/13 12:52:16;;;;;;;7.70;1.15;;;17.90;84.50;;;;;;5049833;28;20383;-50
2022/05/13 12:54:46;;;;;;;4.35;1.13;;;18.00;83.90;;;;;;5045851;28;20040;-49
2022/05/13 12:57:18;;;;;;;8.15;1.30;;;18.10;83.20;;;;;;5050370;28;20552;-50
2022/05/13 12:59:50;;;;;;;5.10;0.65;;;18.10;83.20;;;;;;5054480;28;20666;-50
2022/05/13 13:02:16;;;;;;;9.45;1.20;;;18.20;84.20;;;;;;5045122;28;20049;-54
2022/05/13 13:04:52;;;;;;;4.90;1.70;;;18.30;83.50;;;;;;5051510;28;20128;-49
2022/05/13 13:07:20;;;;;;;4.43;0.88;;;18.40;83.60;;;;;;5048281;28;20044;-49
2022/05/13 13:09:51;;;;;;;7.82;1.20;;;18.50;82.40;;;;;;5064784;28;20044;-50
2022/05/13 13:12:42;;;;;;;5.47;0.70;;;18.60;82.60;;;;;;5062201;28;20052;-52
2022/05/13 13:15:23;;;;;;;5.28;1.17;;;18.60;80.90;;;;;;5046973;28;20040;-51
2022/05/13 13:18:00;;;;;;;4.70;1.02;;;18.50;79.90;;;;;;5065444;28;20413;-49
2022/05/13 13:20:28;;;;;;;7.03;0.98;;;18.40;79.70;;;;;;5064762;28;20405;-52
2022/05/13 13:23:03;;;;;;;5.93;1.20;;;18.40;81.20;;;;;;5064619;28;20123;-54
2022/05/13 13:25:38;;;;;;;6.68;1.10;;;18.50;81.30;;;;;;5064076;28;20036;-52
2022/05/13 13:28:20;;;;;;;3.30;0.80;;;18.60;81.40;;;;;;5064739;28;20466;-50
2022/05/13 13:30:57;;;;;;;5.93;0.85;;;18.70;79.90;;;;;;5065217;28;20157;-53
2022/05/13 13:33:32;;;;;;;5.88;1.10;;;18.70;79.80;;;;;;5073459;28;20051;-52
2022/05/13 13:36:16;;;;;;;5.50;1.00;;;18.80;80.40;;;;;;5066621;28;20532;-53